sensor_id;sensor_type;location;lat;lon;timestamp;P1;durP1;ratioP1;P2;durP2;ratioP2
27489;SDS011;14925;51.026;13.752;2023-07-29T00:01:46;2.63;;;2.00;;
27489;SDS011;14925;51.026;13.752;2023-07-29T00:04:11;3.58;;;1.73;;
27489;SDS011;14925;51.026;13.752;2023-07-29T00:06:37;4.50;;;1.90;;
27489;SDS011;14925;51.026;13.752;2023-07-29T00:09:02;1.98;;;1.80;;
27489;SDS011;14925;51.026;13.752;2023-07-29T00:11:28;2.75;;;1.80;;
27489;SDS011;14925;51.026;13.752;2023-07-29T00:13:56;5.00;;;1.90;;
27489;SDS011;14925;51.026;13.752;2023-07-29T00:16:21;2.63;;;1.80;;
27489;SDS011;14925;51.026;13.752;2023-07-29T00:18:47;2.20;;;1.98;;
27489;SDS011;14925;51.026;13.752;2023-07-29T00:21:16;4.13;;;1.83;;
27489;SDS011;14925;51.026;13.752;2023-07-29T00:23:44;4.80;;;1.90;;
27489;SDS011;14925;51.026;13.752;2023-07-29T00:26:12;3.40;;;1.73;;
27489;SDS011;14925;51.026;13.752;2023-07-29T00:28:37;4.38;;;1.60;;
27489;SDS011;14925;51.026;13.752;2023-07-29T00:31:05;2.78;;;1.70;;
27489;SDS011;14925;51.026;13.752;2023-07-29T00:33:30;2.28;;;2.00;;
27489;SDS011;14925;51.026;13.752;2023-07-29T00:35:56;2.50;;;1.65;;
27489;SDS011;14925;51.026;13.752;2023-07-29T00:38:27;3.35;;;1.90;;
27489;SDS011;14925;51.026;13.752;2023-07-29T00:40:58;6.70;;;2.00;;
27489;SDS011;14925;51.026;13.752;2023-07-29T00:43:28;2.92;;;2.10;;
27489;SDS011;14925;51.026;13.752;2023-07-29T00:46:00;3.25;;;1.80;;
27489;SDS011;14925;51.026;13.752;2023-07-29T00:48:28;2.22;;;1.85;;
27489;SDS011;14925;51.026;13.752;2023-07-29T00:50:54;3.72;;;1.90;;
27489;SDS011;14925;51.026;13.752;2023-07-29T00:53:29;3.47;;;2.00;;
27489;SDS011;14925;51.026;13.752;2023-07-29T00:56:03;2.58;;;1.90;;
27489;SDS011;14925;51.026;13.752;2023-07-29T00:58:29;1.98;;;1.67;;
27489;SDS011;14925;51.026;13.752;2023-07-29T01:01:04;2.45;;;1.98;;
27489;SDS011;14925;51.026;13.752;2023-07-29T01:03:30;3.75;;;1.83;;
27489;SDS011;14925;51.026;13.752;2023-07-29T01:05:59;2.58;;;1.83;;
27489;SDS011;14925;51.026;13.752;2023-07-29T01:08:46;2.10;;;1.70;;
27489;SDS011;14925;51.026;13.752;2023-07-29T01:11:36;2.83;;;2.00;;
27489;SDS011;14925;51.026;13.752;2023-07-29T01:17:07;2.75;;;2.03;;
27489;SDS011;14925;51.026;13.752;2023-07-29T01:22:35;2.72;;;2.03;;
27489;SDS011;14925;51.026;13.752;2023-07-29T01:25:02;4.38;;;2.38;;
27489;SDS011;14925;51.026;13.752;2023-07-29T01:27:27;2.80;;;2.10;;
27489;SDS011;14925;51.026;13.752;2023-07-29T01:29:53;4.93;;;2.30;;
27489;SDS011;14925;51.026;13.752;2023-07-29T01:32:27;2.58;;;2.20;;
27489;SDS011;14925;51.026;13.752;2023-07-29T01:37:55;5.07;;;2.22;;
27489;SDS011;14925;51.026;13.752;2023-07-29T01:40:22;4.97;;;2.30;;
27489;SDS011;14925;51.026;13.752;2023-07-29T01:42:48;4.22;;;2.20;;
27489;SDS011;14925;51.026;13.752;2023-07-29T01:45:22;2.65;;;2.10;;
27489;SDS011;14925;51.026;13.752;2023-07-29T01:47:49;3.10;;;2.10;;
27489;SDS011;14925;51.026;13.752;2023-07-29T01:50:18;2.55;;;2.22;;
27489;SDS011;14925;51.026;13.752;2023-07-29T01:52:46;2.17;;;1.92;;
27489;SDS011;14925;51.026;13.752;2023-07-29T01:55:15;2.72;;;2.22;;
27489;SDS011;14925;51.026;13.752;2023-07-29T01:57:40;3.45;;;2.00;;
27489;SDS011;14925;51.026;13.752;2023-07-29T02:00:06;2.22;;;2.03;;
27489;SDS011;14925;51.026;13.752;2023-07-29T02:02:35;4.80;;;2.05;;
27489;SDS011;14925;51.026;13.752;2023-07-29T02:05:01;2.83;;;2.10;;
27489;SDS011;14925;51.026;13.752;2023-07-29T02:07:26;2.40;;;2.20;;
27489;SDS011;14925;51.026;13.752;2023-07-29T02:09:51;2.92;;;1.92;;
27489;SDS011;14925;51.026;13.752;2023-07-29T02:12:18;2.47;;;2.20;;
27489;SDS011;14925;51.026;13.752;2023-07-29T02:14:43;3.85;;;2.05;;
27489;SDS011;14925;51.026;13.752;2023-07-29T02:17:09;2.22;;;2.03;;
27489;SDS011;14925;51.026;13.752;2023-07-29T02:19:34;2.60;;;2.40;;
27489;SDS011;14925;51.026;13.752;2023-07-29T02:22:07;4.18;;;2.10;;
27489;SDS011;14925;51.026;13.752;2023-07-29T02:24:33;2.45;;;2.05;;
27489;SDS011;14925;51.026;13.752;2023-07-29T02:26:58;2.30;;;2.10;;
27489;SDS011;14925;51.026;13.752;2023-07-29T02:29:23;3.25;;;1.80;;
27489;SDS011;14925;51.026;13.752;2023-07-29T02:31:55;2.65;;;2.33;;
27489;SDS011;14925;51.026;13.752;2023-07-29T02:34:21;3.60;;;2.30;;
27489;SDS011;14925;51.026;13.752;2023-07-29T02:36:49;2.42;;;1.90;;
27489;SDS011;14925;51.026;13.752;2023-07-29T02:39:17;3.67;;;2.17;;
27489;SDS011;14925;51.026;13.752;2023-07-29T02:41:42;2.55;;;2.35;;
27489;SDS011;14925;51.026;13.752;2023-07-29T02:44:08;2.08;;;1.90;;
27489;SDS011;14925;51.026;13.752;2023-07-29T02:46:33;2.00;;;1.90;;
27489;SDS011;14925;51.026;13.752;2023-07-29T02:48:59;2.17;;;1.90;;
27489;SDS011;14925;51.026;13.752;2023-07-29T02:51:24;1.95;;;1.85;;
27489;SDS011;14925;51.026;13.752;2023-07-29T02:53:50;6.15;;;2.13;;
27489;SDS011;14925;51.026;13.752;2023-07-29T02:56:15;2.35;;;1.98;;
27489;SDS011;14925;51.026;13.752;2023-07-29T02:58:41;2.83;;;2.00;;
27489;SDS011;14925;51.026;13.752;2023-07-29T03:01:06;2.33;;;2.00;;
27489;SDS011;14925;51.026;13.752;2023-07-29T03:03:32;3.78;;;2.33;;
27489;SDS011;14925;51.026;13.752;2023-07-29T03:06:07;2.90;;;2.03;;
27489;SDS011;14925;51.026;13.752;2023-07-29T03:08:34;2.78;;;1.80;;
27489;SDS011;14925;51.026;13.752;2023-07-29T03:11:04;3.75;;;2.05;;
27489;SDS011;14925;51.026;13.752;2023-07-29T03:13:34;2.65;;;2.00;;
27489;SDS011;14925;51.026;13.752;2023-07-29T03:16:15;2.97;;;2.28;;
27489;SDS011;14925;51.026;13.752;2023-07-29T03:18:42;3.55;;;1.80;;
27489;SDS011;14925;51.026;13.752;2023-07-29T03:21:08;3.08;;;2.10;;
27489;SDS011;14925;51.026;13.752;2023-07-29T03:23:34;3.05;;;2.20;;
27489;SDS011;14925;51.026;13.752;2023-07-29T03:26:03;8.93;;;2.00;;
27489;SDS011;14925;51.026;13.752;2023-07-29T03:28:35;1.92;;;1.80;;
27489;SDS011;14925;51.026;13.752;2023-07-29T03:31:10;2.63;;;1.60;;
27489;SDS011;14925;51.026;13.752;2023-07-29T03:33:36;4.22;;;2.00;;
27489;SDS011;14925;51.026;13.752;2023-07-29T03:36:02;2.63;;;1.95;;
27489;SDS011;14925;51.026;13.752;2023-07-29T03:38:27;2.63;;;2.08;;
27489;SDS011;14925;51.026;13.752;2023-07-29T03:40:53;2.40;;;1.70;;
27489;SDS011;14925;51.026;13.752;2023-07-29T03:43:18;1.70;;;1.60;;
27489;SDS011;14925;51.026;13.752;2023-07-29T03:45:44;3.00;;;1.30;;
27489;SDS011;14925;51.026;13.752;2023-07-29T03:48:15;1.35;;;1.25;;
27489;SDS011;14925;51.026;13.752;2023-07-29T03:50:44;2.65;;;1.08;;
27489;SDS011;14925;51.026;13.752;2023-07-29T03:53:15;1.92;;;1.10;;
27489;SDS011;14925;51.026;13.752;2023-07-29T03:55:45;1.50;;;0.90;;
27489;SDS011;14925;51.026;13.752;2023-07-29T03:58:12;1.13;;;0.90;;
27489;SDS011;14925;51.026;13.752;2023-07-29T04:00:37;1.45;;;0.98;;
27489;SDS011;14925;51.026;13.752;2023-07-29T04:03:08;4.15;;;1.00;;
27489;SDS011;14925;51.026;13.752;2023-07-29T04:05:37;2.75;;;1.25;;
27489;SDS011;14925;51.026;13.752;2023-07-29T04:08:04;2.92;;;0.98;;
27489;SDS011;14925;51.026;13.752;2023-07-29T04:10:30;1.20;;;1.00;;
27489;SDS011;14925;51.026;13.752;2023-07-29T04:13:00;0.88;;;0.80;;
27489;SDS011;14925;51.026;13.752;2023-07-29T04:15:27;0.80;;;0.77;;
27489;SDS011;14925;51.026;13.752;2023-07-29T04:17:53;1.35;;;0.82;;
27489;SDS011;14925;51.026;13.752;2023-07-29T04:20:26;1.52;;;0.80;;
27489;SDS011;14925;51.026;13.752;2023-07-29T04:22:51;2.70;;;1.00;;
27489;SDS011;14925;51.026;13.752;2023-07-29T04:25:19;0.80;;;0.80;;
27489;SDS011;14925;51.026;13.752;2023-07-29T04:27:48;1.52;;;0.75;;
27489;SDS011;14925;51.026;13.752;2023-07-29T04:30:13;0.80;;;0.80;;
27489;SDS011;14925;51.026;13.752;2023-07-29T04:32:41;0.77;;;0.77;;
27489;SDS011;14925;51.026;13.752;2023-07-29T04:35:19;0.60;;;0.60;;
27489;SDS011;14925;51.026;13.752;2023-07-29T04:37:47;0.70;;;0.70;;
27489;SDS011;14925;51.026;13.752;2023-07-29T04:40:18;0.80;;;0.80;;
27489;SDS011;14925;51.026;13.752;2023-07-29T04:42:47;1.50;;;0.80;;
27489;SDS011;14925;51.026;13.752;2023-07-29T04:45:13;1.35;;;1.00;;
27489;SDS011;14925;51.026;13.752;2023-07-29T04:47:45;2.55;;;0.90;;
27489;SDS011;14925;51.026;13.752;2023-07-29T04:50:22;0.95;;;0.70;;
27489;SDS011;14925;51.026;13.752;2023-07-29T04:52:50;1.63;;;0.80;;
27489;SDS011;14925;51.026;13.752;2023-07-29T04:55:18;1.00;;;0.90;;
27489;SDS011;14925;51.026;13.752;2023-07-29T04:57:48;2.90;;;0.80;;
27489;SDS011;14925;51.026;13.752;2023-07-29T05:00:13;1.15;;;0.80;;
27489;SDS011;14925;51.026;13.752;2023-07-29T05:02:39;1.00;;;0.70;;
27489;SDS011;14925;51.026;13.752;2023-07-29T05:05:08;1.60;;;0.60;;
27489;SDS011;14925;51.026;13.752;2023-07-29T05:07:39;0.93;;;0.82;;
27489;SDS011;14925;51.026;13.752;2023-07-29T05:10:05;1.25;;;0.65;;
27489;SDS011;14925;51.026;13.752;2023-07-29T05:12:31;2.10;;;0.80;;
27489;SDS011;14925;51.026;13.752;2023-07-29T05:14:57;0.60;;;0.60;;
27489;SDS011;14925;51.026;13.752;2023-07-29T05:17:31;0.68;;;0.65;;
27489;SDS011;14925;51.026;13.752;2023-07-29T05:19:57;1.02;;;0.80;;
27489;SDS011;14925;51.026;13.752;2023-07-29T05:22:22;0.90;;;0.80;;
27489;SDS011;14925;51.026;13.752;2023-07-29T05:24:48;0.82;;;0.82;;
27489;SDS011;14925;51.026;13.752;2023-07-29T05:27:22;1.55;;;0.90;;
27489;SDS011;14925;51.026;13.752;2023-07-29T05:29:47;0.80;;;0.80;;
27489;SDS011;14925;51.026;13.752;2023-07-29T05:32:13;4.07;;;0.90;;
27489;SDS011;14925;51.026;13.752;2023-07-29T05:34:38;0.73;;;0.73;;
27489;SDS011;14925;51.026;13.752;2023-07-29T05:37:24;1.83;;;0.80;;
27489;SDS011;14925;51.026;13.752;2023-07-29T05:39:49;0.90;;;0.70;;
27489;SDS011;14925;51.026;13.752;2023-07-29T05:42:27;0.82;;;0.75;;
27489;SDS011;14925;51.026;13.752;2023-07-29T05:44:52;1.85;;;0.70;;
27489;SDS011;14925;51.026;13.752;2023-07-29T05:47:20;1.27;;;0.98;;
27489;SDS011;14925;51.026;13.752;2023-07-29T05:49:46;0.85;;;0.75;;
27489;SDS011;14925;51.026;13.752;2023-07-29T05:52:11;1.40;;;0.98;;
27489;SDS011;14925;51.026;13.752;2023-07-29T05:54:40;1.17;;;0.80;;
27489;SDS011;14925;51.026;13.752;2023-07-29T05:57:26;0.80;;;0.70;;
27489;SDS011;14925;51.026;13.752;2023-07-29T05:59:53;0.70;;;0.63;;
27489;SDS011;14925;51.026;13.752;2023-07-29T06:02:19;1.80;;;0.90;;
27489;SDS011;14925;51.026;13.752;2023-07-29T06:04:44;0.65;;;0.65;;
27489;SDS011;14925;51.026;13.752;2023-07-29T06:07:19;1.00;;;0.77;;
27489;SDS011;14925;51.026;13.752;2023-07-29T06:09:55;0.73;;;0.73;;
27489;SDS011;14925;51.026;13.752;2023-07-29T06:12:20;0.75;;;0.73;;
27489;SDS011;14925;51.026;13.752;2023-07-29T06:14:49;1.02;;;0.93;;
27489;SDS011;14925;51.026;13.752;2023-07-29T06:17:17;1.02;;;0.95;;
27489;SDS011;14925;51.026;13.752;2023-07-29T06:19:45;3.10;;;0.80;;
27489;SDS011;14925;51.026;13.752;2023-07-29T06:22:13;2.85;;;0.85;;
27489;SDS011;14925;51.026;13.752;2023-07-29T06:24:41;1.63;;;1.15;;
27489;SDS011;14925;51.026;13.752;2023-07-29T06:27:10;1.17;;;0.70;;
27489;SDS011;14925;51.026;13.752;2023-07-29T06:29:35;0.70;;;0.70;;
27489;SDS011;14925;51.026;13.752;2023-07-29T06:32:01;0.80;;;0.70;;
27489;SDS011;14925;51.026;13.752;2023-07-29T06:34:33;1.73;;;0.80;;
27489;SDS011;14925;51.026;13.752;2023-07-29T06:37:00;1.25;;;0.85;;
27489;SDS011;14925;51.026;13.752;2023-07-29T06:39:28;0.88;;;0.73;;
27489;SDS011;14925;51.026;13.752;2023-07-29T06:41:57;1.83;;;0.77;;
27489;SDS011;14925;51.026;13.752;2023-07-29T06:44:23;1.00;;;0.90;;
27489;SDS011;14925;51.026;13.752;2023-07-29T06:46:54;1.75;;;0.80;;
27489;SDS011;14925;51.026;13.752;2023-07-29T06:49:25;1.08;;;0.88;;
27489;SDS011;14925;51.026;13.752;2023-07-29T06:51:51;0.82;;;0.80;;
27489;SDS011;14925;51.026;13.752;2023-07-29T06:54:25;0.80;;;0.80;;
27489;SDS011;14925;51.026;13.752;2023-07-29T06:56:51;1.33;;;0.88;;
27489;SDS011;14925;51.026;13.752;2023-07-29T06:59:17;1.75;;;0.88;;
27489;SDS011;14925;51.026;13.752;2023-07-29T07:01:42;0.95;;;0.90;;
27489;SDS011;14925;51.026;13.752;2023-07-29T07:04:13;1.52;;;1.00;;
27489;SDS011;14925;51.026;13.752;2023-07-29T07:06:47;1.10;;;1.00;;
27489;SDS011;14925;51.026;13.752;2023-07-29T07:09:15;1.10;;;1.00;;
27489;SDS011;14925;51.026;13.752;2023-07-29T07:11:41;1.23;;;0.82;;
27489;SDS011;14925;51.026;13.752;2023-07-29T07:14:07;1.95;;;1.10;;
27489;SDS011;14925;51.026;13.752;2023-07-29T07:16:32;0.90;;;0.90;;
27489;SDS011;14925;51.026;13.752;2023-07-29T07:19:00;1.13;;;1.00;;
27489;SDS011;14925;51.026;13.752;2023-07-29T07:21:26;0.95;;;0.90;;
27489;SDS011;14925;51.026;13.752;2023-07-29T07:23:54;2.05;;;1.00;;
27489;SDS011;14925;51.026;13.752;2023-07-29T07:26:19;1.33;;;0.90;;
27489;SDS011;14925;51.026;13.752;2023-07-29T07:28:45;1.40;;;0.90;;
27489;SDS011;14925;51.026;13.752;2023-07-29T07:31:11;1.77;;;0.60;;
27489;SDS011;14925;51.026;13.752;2023-07-29T07:33:36;1.50;;;0.80;;
27489;SDS011;14925;51.026;13.752;2023-07-29T07:36:05;1.20;;;0.75;;
27489;SDS011;14925;51.026;13.752;2023-07-29T07:38:32;1.65;;;0.88;;
27489;SDS011;14925;51.026;13.752;2023-07-29T07:40:58;0.80;;;0.80;;
27489;SDS011;14925;51.026;13.752;2023-07-29T07:43:24;1.73;;;0.90;;
27489;SDS011;14925;51.026;13.752;2023-07-29T07:45:49;3.25;;;0.90;;
27489;SDS011;14925;51.026;13.752;2023-07-29T07:48:16;0.60;;;0.60;;
27489;SDS011;14925;51.026;13.752;2023-07-29T07:50:45;2.33;;;0.90;;
27489;SDS011;14925;51.026;13.752;2023-07-29T07:53:10;1.00;;;0.88;;
27489;SDS011;14925;51.026;13.752;2023-07-29T07:55:35;0.93;;;0.80;;
27489;SDS011;14925;51.026;13.752;2023-07-29T07:58:04;1.00;;;0.90;;
27489;SDS011;14925;51.026;13.752;2023-07-29T08:00:29;1.00;;;0.80;;
27489;SDS011;14925;51.026;13.752;2023-07-29T08:02:55;1.33;;;0.80;;
27489;SDS011;14925;51.026;13.752;2023-07-29T08:05:20;1.25;;;0.80;;
27489;SDS011;14925;51.026;13.752;2023-07-29T08:07:52;1.08;;;0.70;;
27489;SDS011;14925;51.026;13.752;2023-07-29T08:10:27;0.85;;;0.80;;
27489;SDS011;14925;51.026;13.752;2023-07-29T08:12:55;1.05;;;0.90;;
27489;SDS011;14925;51.026;13.752;2023-07-29T08:15:21;1.80;;;0.70;;
27489;SDS011;14925;51.026;13.752;2023-07-29T08:17:47;0.60;;;0.60;;
27489;SDS011;14925;51.026;13.752;2023-07-29T08:20:12;1.38;;;0.75;;
27489;SDS011;14925;51.026;13.752;2023-07-29T08:22:38;0.60;;;0.60;;
27489;SDS011;14925;51.026;13.752;2023-07-29T08:25:09;0.63;;;0.63;;
27489;SDS011;14925;51.026;13.752;2023-07-29T08:27:37;1.08;;;0.50;;
27489;SDS011;14925;51.026;13.752;2023-07-29T08:30:05;2.70;;;0.60;;
27489;SDS011;14925;51.026;13.752;2023-07-29T08:32:44;0.55;;;0.55;;
27489;SDS011;14925;51.026;13.752;2023-07-29T08:35:10;2.10;;;0.68;;
27489;SDS011;14925;51.026;13.752;2023-07-29T08:37:35;1.15;;;0.60;;
27489;SDS011;14925;51.026;13.752;2023-07-29T08:40:01;0.77;;;0.47;;
27489;SDS011;14925;51.026;13.752;2023-07-29T08:42:36;0.63;;;0.60;;
27489;SDS011;14925;51.026;13.752;2023-07-29T08:45:06;2.55;;;0.60;;
27489;SDS011;14925;51.026;13.752;2023-07-29T08:47:33;0.95;;;0.60;;
27489;SDS011;14925;51.026;13.752;2023-07-29T08:49:58;1.40;;;1.00;;
27489;SDS011;14925;51.026;13.752;2023-07-29T08:52:24;1.88;;;1.10;;
27489;SDS011;14925;51.026;13.752;2023-07-29T08:54:51;0.80;;;0.70;;
27489;SDS011;14925;51.026;13.752;2023-07-29T08:57:17;1.67;;;0.55;;
27489;SDS011;14925;51.026;13.752;2023-07-29T08:59:44;0.50;;;0.50;;
27489;SDS011;14925;51.026;13.752;2023-07-29T09:02:12;2.15;;;0.60;;
27489;SDS011;14925;51.026;13.752;2023-07-29T09:04:40;1.58;;;0.57;;
27489;SDS011;14925;51.026;13.752;2023-07-29T09:07:05;0.60;;;0.60;;
27489;SDS011;14925;51.026;13.752;2023-07-29T09:09:34;1.90;;;0.73;;
27489;SDS011;14925;51.026;13.752;2023-07-29T09:11:59;1.13;;;0.90;;
27489;SDS011;14925;51.026;13.752;2023-07-29T09:14:30;1.48;;;0.80;;
27489;SDS011;14925;51.026;13.752;2023-07-29T09:16:58;3.00;;;0.90;;
27489;SDS011;14925;51.026;13.752;2023-07-29T09:19:27;0.98;;;0.80;;
27489;SDS011;14925;51.026;13.752;2023-07-29T09:22:01;0.63;;;0.63;;
27489;SDS011;14925;51.026;13.752;2023-07-29T09:24:30;2.13;;;0.93;;
27489;SDS011;14925;51.026;13.752;2023-07-29T09:27:07;0.75;;;0.75;;
27489;SDS011;14925;51.026;13.752;2023-07-29T09:29:39;0.80;;;0.80;;
27489;SDS011;14925;51.026;13.752;2023-07-29T09:32:17;1.05;;;0.80;;
27489;SDS011;14925;51.026;13.752;2023-07-29T09:34:46;0.95;;;0.90;;
27489;SDS011;14925;51.026;13.752;2023-07-29T09:37:22;2.85;;;1.30;;
27489;SDS011;14925;51.026;13.752;2023-07-29T09:39:48;1.55;;;1.10;;
27489;SDS011;14925;51.026;13.752;2023-07-29T09:42:18;0.90;;;0.90;;
27489;SDS011;14925;51.026;13.752;2023-07-29T09:44:45;0.88;;;0.88;;
27489;SDS011;14925;51.026;13.752;2023-07-29T09:47:18;2.35;;;1.00;;
27489;SDS011;14925;51.026;13.752;2023-07-29T09:49:47;1.27;;;1.17;;
27489;SDS011;14925;51.026;13.752;2023-07-29T09:52:14;1.50;;;1.00;;
27489;SDS011;14925;51.026;13.752;2023-07-29T09:54:42;3.70;;;1.00;;
27489;SDS011;14925;51.026;13.752;2023-07-29T09:57:08;1.17;;;1.02;;
27489;SDS011;14925;51.026;13.752;2023-07-29T09:59:33;1.10;;;1.00;;
27489;SDS011;14925;51.026;13.752;2023-07-29T10:01:59;1.17;;;1.00;;
27489;SDS011;14925;51.026;13.752;2023-07-29T10:04:28;1.23;;;0.90;;
27489;SDS011;14925;51.026;13.752;2023-07-29T10:06:54;1.30;;;0.98;;
27489;SDS011;14925;51.026;13.752;2023-07-29T10:09:21;1.90;;;1.13;;
27489;SDS011;14925;51.026;13.752;2023-07-29T10:11:50;2.15;;;1.15;;
27489;SDS011;14925;51.026;13.752;2023-07-29T10:14:18;2.20;;;1.33;;
27489;SDS011;14925;51.026;13.752;2023-07-29T10:16:44;6.38;;;1.30;;
27489;SDS011;14925;51.026;13.752;2023-07-29T10:19:11;3.22;;;1.60;;
27489;SDS011;14925;51.026;13.752;2023-07-29T10:21:39;3.40;;;1.90;;
27489;SDS011;14925;51.026;13.752;2023-07-29T10:24:09;2.60;;;2.10;;
27489;SDS011;14925;51.026;13.752;2023-07-29T10:26:40;2.67;;;2.08;;
27489;SDS011;14925;51.026;13.752;2023-07-29T10:29:08;2.72;;;1.67;;
27489;SDS011;14925;51.026;13.752;2023-07-29T10:31:35;3.03;;;1.65;;
27489;SDS011;14925;51.026;13.752;2023-07-29T10:34:02;5.53;;;2.08;;
27489;SDS011;14925;51.026;13.752;2023-07-29T10:36:28;5.97;;;1.95;;
27489;SDS011;14925;51.026;13.752;2023-07-29T10:38:54;2.70;;;1.70;;
27489;SDS011;14925;51.026;13.752;2023-07-29T10:41:19;3.13;;;1.50;;
27489;SDS011;14925;51.026;13.752;2023-07-29T10:43:48;1.58;;;1.20;;
27489;SDS011;14925;51.026;13.752;2023-07-29T10:46:17;1.80;;;1.60;;
27489;SDS011;14925;51.026;13.752;2023-07-29T10:48:53;1.70;;;1.10;;
27489;SDS011;14925;51.026;13.752;2023-07-29T10:51:26;4.22;;;1.52;;
27489;SDS011;14925;51.026;13.752;2023-07-29T10:53:55;4.55;;;1.30;;
27489;SDS011;14925;51.026;13.752;2023-07-29T10:56:29;1.85;;;1.40;;
27489;SDS011;14925;51.026;13.752;2023-07-29T11:01:37;1.80;;;1.23;;
27489;SDS011;14925;51.026;13.752;2023-07-29T11:17:37;4.85;;;2.28;;
27489;SDS011;14925;51.026;13.752;2023-07-29T11:20:04;4.72;;;1.77;;
27489;SDS011;14925;51.026;13.752;2023-07-29T11:22:30;2.40;;;1.73;;
27489;SDS011;14925;51.026;13.752;2023-07-29T11:24:59;2.05;;;1.83;;
27489;SDS011;14925;51.026;13.752;2023-07-29T11:27:25;3.38;;;1.52;;
27489;SDS011;14925;51.026;13.752;2023-07-29T11:29:50;1.73;;;1.20;;
27489;SDS011;14925;51.026;13.752;2023-07-29T11:32:34;1.75;;;1.20;;
27489;SDS011;14925;51.026;13.752;2023-07-29T11:37:29;3.30;;;1.20;;
27489;SDS011;14925;51.026;13.752;2023-07-29T11:40:00;2.47;;;1.20;;
27489;SDS011;14925;51.026;13.752;2023-07-29T11:42:26;3.13;;;0.80;;
27489;SDS011;14925;51.026;13.752;2023-07-29T11:44:57;3.83;;;1.23;;
27489;SDS011;14925;51.026;13.752;2023-07-29T11:47:26;3.28;;;0.90;;
27489;SDS011;14925;51.026;13.752;2023-07-29T11:49:54;1.98;;;1.10;;
27489;SDS011;14925;51.026;13.752;2023-07-29T11:52:23;1.17;;;0.98;;
27489;SDS011;14925;51.026;13.752;2023-07-29T11:54:49;1.10;;;1.00;;
27489;SDS011;14925;51.026;13.752;2023-07-29T11:57:15;1.73;;;0.95;;
27489;SDS011;14925;51.026;13.752;2023-07-29T11:59:41;1.65;;;1.10;;
27489;SDS011;14925;51.026;13.752;2023-07-29T12:02:14;3.03;;;1.00;;
27489;SDS011;14925;51.026;13.752;2023-07-29T12:04:47;2.08;;;1.20;;
27489;SDS011;14925;51.026;13.752;2023-07-29T12:07:14;3.10;;;1.05;;
27489;SDS011;14925;51.026;13.752;2023-07-29T12:09:41;3.72;;;1.10;;
27489;SDS011;14925;51.026;13.752;2023-07-29T12:12:28;4.15;;;1.00;;
27489;SDS011;14925;51.026;13.752;2023-07-29T12:14:56;2.05;;;1.23;;
27489;SDS011;14925;51.026;13.752;2023-07-29T12:17:24;2.08;;;1.20;;
27489;SDS011;14925;51.026;13.752;2023-07-29T12:19:49;3.80;;;1.00;;
27489;SDS011;14925;51.026;13.752;2023-07-29T12:22:19;1.60;;;1.00;;
27489;SDS011;14925;51.026;13.752;2023-07-29T12:24:51;2.80;;;1.10;;
27489;SDS011;14925;51.026;13.752;2023-07-29T12:27:18;2.20;;;1.00;;
27489;SDS011;14925;51.026;13.752;2023-07-29T12:29:46;0.85;;;0.80;;
27489;SDS011;14925;51.026;13.752;2023-07-29T12:32:13;2.75;;;1.10;;
27489;SDS011;14925;51.026;13.752;2023-07-29T12:34:39;1.38;;;0.73;;
27489;SDS011;14925;51.026;13.752;2023-07-29T12:37:10;1.20;;;0.88;;
27489;SDS011;14925;51.026;13.752;2023-07-29T12:39:44;1.17;;;0.80;;
27489;SDS011;14925;51.026;13.752;2023-07-29T12:42:10;1.08;;;0.90;;
27489;SDS011;14925;51.026;13.752;2023-07-29T12:44:36;1.15;;;0.90;;
27489;SDS011;14925;51.026;13.752;2023-07-29T12:47:03;1.25;;;0.90;;
27489;SDS011;14925;51.026;13.752;2023-07-29T12:49:30;1.13;;;1.02;;
27489;SDS011;14925;51.026;13.752;2023-07-29T12:51:57;1.13;;;0.80;;
27489;SDS011;14925;51.026;13.752;2023-07-29T12:54:40;1.50;;;0.75;;
27489;SDS011;14925;51.026;13.752;2023-07-29T12:57:07;1.00;;;0.70;;
27489;SDS011;14925;51.026;13.752;2023-07-29T12:59:32;3.65;;;0.90;;
27489;SDS011;14925;51.026;13.752;2023-07-29T13:02:12;0.77;;;0.77;;
27489;SDS011;14925;51.026;13.752;2023-07-29T13:04:40;0.75;;;0.65;;
27489;SDS011;14925;51.026;13.752;2023-07-29T13:07:05;1.60;;;0.73;;
27489;SDS011;14925;51.026;13.752;2023-07-29T13:09:34;0.95;;;0.85;;
27489;SDS011;14925;51.026;13.752;2023-07-29T13:11:59;1.50;;;0.70;;
27489;SDS011;14925;51.026;13.752;2023-07-29T13:14:34;0.90;;;0.80;;
27489;SDS011;14925;51.026;13.752;2023-07-29T13:17:05;2.25;;;0.90;;
27489;SDS011;14925;51.026;13.752;2023-07-29T13:19:30;1.45;;;0.70;;
27489;SDS011;14925;51.026;13.752;2023-07-29T13:21:56;1.58;;;0.80;;
27489;SDS011;14925;51.026;13.752;2023-07-29T13:24:24;3.15;;;0.85;;
27489;SDS011;14925;51.026;13.752;2023-07-29T13:26:53;1.08;;;0.70;;
27489;SDS011;14925;51.026;13.752;2023-07-29T13:29:18;1.25;;;0.80;;
27489;SDS011;14925;51.026;13.752;2023-07-29T13:31:43;1.58;;;0.80;;
27489;SDS011;14925;51.026;13.752;2023-07-29T13:34:19;0.80;;;0.70;;
27489;SDS011;14925;51.026;13.752;2023-07-29T13:36:54;0.60;;;0.60;;
27489;SDS011;14925;51.026;13.752;2023-07-29T13:39:19;0.95;;;0.73;;
27489;SDS011;14925;51.026;13.752;2023-07-29T13:41:45;4.07;;;0.70;;
27489;SDS011;14925;51.026;13.752;2023-07-29T13:44:10;2.15;;;0.80;;
27489;SDS011;14925;51.026;13.752;2023-07-29T13:46:35;2.58;;;0.77;;
27489;SDS011;14925;51.026;13.752;2023-07-29T13:49:01;0.85;;;0.85;;
27489;SDS011;14925;51.026;13.752;2023-07-29T13:51:28;1.83;;;0.90;;
27489;SDS011;14925;51.026;13.752;2023-07-29T13:53:55;1.08;;;0.90;;
27489;SDS011;14925;51.026;13.752;2023-07-29T13:56:27;0.80;;;0.80;;
27489;SDS011;14925;51.026;13.752;2023-07-29T13:58:59;1.10;;;0.90;;
27489;SDS011;14925;51.026;13.752;2023-07-29T14:01:24;1.23;;;1.00;;
27489;SDS011;14925;51.026;13.752;2023-07-29T14:03:50;0.80;;;0.80;;
27489;SDS011;14925;51.026;13.752;2023-07-29T14:06:15;0.70;;;0.70;;
27489;SDS011;14925;51.026;13.752;2023-07-29T14:08:40;3.08;;;0.93;;
27489;SDS011;14925;51.026;13.752;2023-07-29T14:11:07;0.85;;;0.80;;
27489;SDS011;14925;51.026;13.752;2023-07-29T14:13:32;0.60;;;0.60;;
27489;SDS011;14925;51.026;13.752;2023-07-29T14:16:00;1.02;;;0.73;;
27489;SDS011;14925;51.026;13.752;2023-07-29T14:18:26;0.70;;;0.70;;
27489;SDS011;14925;51.026;13.752;2023-07-29T14:20:52;4.47;;;0.80;;
27489;SDS011;14925;51.026;13.752;2023-07-29T14:23:22;3.83;;;1.00;;
27489;SDS011;14925;51.026;13.752;2023-07-29T14:25:47;0.95;;;0.80;;
27489;SDS011;14925;51.026;13.752;2023-07-29T14:28:13;1.20;;;0.80;;
27489;SDS011;14925;51.026;13.752;2023-07-29T14:30:39;3.03;;;0.80;;
27489;SDS011;14925;51.026;13.752;2023-07-29T14:33:06;0.70;;;0.70;;
27489;SDS011;14925;51.026;13.752;2023-07-29T14:35:31;0.95;;;0.82;;
27489;SDS011;14925;51.026;13.752;2023-07-29T14:37:57;2.40;;;0.70;;
27489;SDS011;14925;51.026;13.752;2023-07-29T14:40:22;1.10;;;0.90;;
27489;SDS011;14925;51.026;13.752;2023-07-29T14:42:48;1.73;;;0.60;;
27489;SDS011;14925;51.026;13.752;2023-07-29T14:45:14;2.47;;;1.08;;
27489;SDS011;14925;51.026;13.752;2023-07-29T14:47:39;1.48;;;0.63;;
27489;SDS011;14925;51.026;13.752;2023-07-29T14:50:05;0.88;;;0.70;;
27489;SDS011;14925;51.026;13.752;2023-07-29T14:52:30;1.00;;;0.60;;
27489;SDS011;14925;51.026;13.752;2023-07-29T14:54:56;0.95;;;0.85;;
27489;SDS011;14925;51.026;13.752;2023-07-29T14:57:21;1.73;;;0.80;;
27489;SDS011;14925;51.026;13.752;2023-07-29T14:59:47;1.95;;;1.20;;
27489;SDS011;14925;51.026;13.752;2023-07-29T15:02:15;2.08;;;1.20;;
27489;SDS011;14925;51.026;13.752;2023-07-29T15:04:40;1.38;;;1.10;;
27489;SDS011;14925;51.026;13.752;2023-07-29T15:07:06;2.75;;;1.20;;